Terminal Aerodrome Forecast
Issued by NWS Lake Charles, LA

Home | Current Version | Previous Version | Text Only | Print | Product List | Glossary On
Versions: 1 2 3 4 5 6 7 8 9 10 11 12 13 14 15 16 17 18 19 20 21 22
000
FTUS44 KLCH 280320 AAB
TAFAEX
TAF AMD
KAEX 280320Z 2803/2824 11014KT 5SM RA BR FEW080 OVC110
      TEMPO 2803/2806 5SM SHRA BKN013 OVC035
     FM280600 VRB05KT P6SM OVC015
      TEMPO 2810/2814 3SM BR
     FM281500 16010KT P6SM SCT025 BKN035=

USA.gov is the U.S. government's official web portal to all federal, state and local government web resources and services.